sensor_id;sensor_type;location;lat;lon;timestamp;pressure;altitude;pressure_sealevel;temperature;humidity
51261;BME280;61705;46.228;24.812;2023-06-22T00:00:12;97822.41;;;17.82;85.65
51261;BME280;61705;46.228;24.812;2023-06-22T00:02:42;97820.66;;;17.93;85.33
51261;BME280;61705;46.228;24.812;2023-06-22T00:05:09;97830.28;;;17.96;85.21
51261;BME280;61705;46.228;24.812;2023-06-22T00:07:38;97833.34;;;18.03;84.83
51261;BME280;61705;46.228;24.812;2023-06-22T00:10:07;97832.78;;;18.10;84.67
51261;BME280;61705;46.228;24.812;2023-06-22T00:12:34;97820.38;;;18.09;84.74
51261;BME280;61705;46.228;24.812;2023-06-22T00:15:04;97824.53;;;18.13;84.09
51261;BME280;61705;46.228;24.812;2023-06-22T00:17:31;97825.22;;;18.28;83.67
51261;BME280;61705;46.228;24.812;2023-06-22T00:19:57;97835.34;;;18.36;83.26
51261;BME280;61705;46.228;24.812;2023-06-22T00:22:28;97830.97;;;18.35;82.70
51261;BME280;61705;46.228;24.812;2023-06-22T00:24:56;97828.50;;;18.32;82.57
51261;BME280;61705;46.228;24.812;2023-06-22T00:27:23;97832.91;;;18.09;84.06
51261;BME280;61705;46.228;24.812;2023-06-22T00:29:50;97834.88;;;17.94;84.77
51261;BME280;61705;46.228;24.812;2023-06-22T00:32:16;97835.81;;;18.06;84.47
51261;BME280;61705;46.228;24.812;2023-06-22T00:34:44;97829.72;;;18.04;84.52
51261;BME280;61705;46.228;24.812;2023-06-22T00:37:12;97826.47;;;18.11;83.95
51261;BME280;61705;46.228;24.812;2023-06-22T00:39:41;97823.16;;;18.08;83.94
51261;BME280;61705;46.228;24.812;2023-06-22T00:42:08;97833.81;;;17.96;84.67
51261;BME280;61705;46.228;24.812;2023-06-22T00:44:37;97819.91;;;17.91;84.98
51261;BME280;61705;46.228;24.812;2023-06-22T00:47:04;97825.81;;;17.84;85.24
51261;BME280;61705;46.228;24.812;2023-06-22T00:49:38;97831.78;;;17.87;85.11
51261;BME280;61705;46.228;24.812;2023-06-22T00:52:06;97830.94;;;17.87;85.14
51261;BME280;61705;46.228;24.812;2023-06-22T00:54:42;97826.00;;;17.93;84.51
51261;BME280;61705;46.228;24.812;2023-06-22T00:57:17;97828.16;;;17.88;84.85
51261;BME280;61705;46.228;24.812;2023-06-22T00:59:45;97826.25;;;17.65;86.14
51261;BME280;61705;46.228;24.812;2023-06-22T01:02:14;97824.84;;;17.72;86.27
51261;BME280;61705;46.228;24.812;2023-06-22T01:04:43;97828.19;;;17.63;86.36
51261;BME280;61705;46.228;24.812;2023-06-22T01:07:18;97836.63;;;17.69;86.42
51261;BME280;61705;46.228;24.812;2023-06-22T01:12:30;97828.31;;;17.61;86.41
51261;BME280;61705;46.228;24.812;2023-06-22T01:17:35;97835.78;;;17.56;86.15
51261;BME280;61705;46.228;24.812;2023-06-22T01:20:02;97835.47;;;17.48;86.79
51261;BME280;61705;46.228;24.812;2023-06-22T01:22:44;97822.97;;;17.48;86.87
51261;BME280;61705;46.228;24.812;2023-06-22T01:25:20;97829.50;;;17.44;86.87
51261;BME280;61705;46.228;24.812;2023-06-22T01:28:14;97835.06;;;17.41;87.20
51261;BME280;61705;46.228;24.812;2023-06-22T01:30:49;97830.25;;;17.34;87.52
51261;BME280;61705;46.228;24.812;2023-06-22T01:33:27;97840.53;;;17.27;88.19
51261;BME280;61705;46.228;24.812;2023-06-22T01:35:54;97829.63;;;17.17;88.40
51261;BME280;61705;46.228;24.812;2023-06-22T01:38:20;97824.81;;;17.10;88.82
51261;BME280;61705;46.228;24.812;2023-06-22T01:40:49;97819.50;;;17.10;88.46
51261;BME280;61705;46.228;24.812;2023-06-22T01:43:16;97816.38;;;17.03;89.11
51261;BME280;61705;46.228;24.812;2023-06-22T01:45:45;97818.19;;;17.28;87.84
51261;BME280;61705;46.228;24.812;2023-06-22T01:48:11;97819.13;;;17.40;87.09
51261;BME280;61705;46.228;24.812;2023-06-22T01:50:41;97817.53;;;17.24;87.68
51261;BME280;61705;46.228;24.812;2023-06-22T01:53:08;97818.19;;;17.28;87.00
51261;BME280;61705;46.228;24.812;2023-06-22T01:55:34;97820.00;;;17.15;87.65
51261;BME280;61705;46.228;24.812;2023-06-22T01:58:01;97823.53;;;16.90;88.49
51261;BME280;61705;46.228;24.812;2023-06-22T02:00:31;97820.94;;;16.88;88.68
51261;BME280;61705;46.228;24.812;2023-06-22T02:03:05;97826.72;;;16.95;88.52
51261;BME280;61705;46.228;24.812;2023-06-22T02:05:45;97826.50;;;16.85;88.51
51261;BME280;61705;46.228;24.812;2023-06-22T02:08:25;97832.38;;;16.77;88.91
51261;BME280;61705;46.228;24.812;2023-06-22T02:10:57;97828.31;;;16.85;89.17
51261;BME280;61705;46.228;24.812;2023-06-22T02:13:26;97836.66;;;16.93;88.63
51261;BME280;61705;46.228;24.812;2023-06-22T02:15:56;97842.44;;;16.99;88.24
51261;BME280;61705;46.228;24.812;2023-06-22T02:18:24;97845.44;;;17.08;87.88
51261;BME280;61705;46.228;24.812;2023-06-22T02:20:57;97844.47;;;17.09;87.98
51261;BME280;61705;46.228;24.812;2023-06-22T02:23:24;97848.41;;;17.16;87.84
51261;BME280;61705;46.228;24.812;2023-06-22T02:25:50;97841.91;;;17.07;88.05
51261;BME280;61705;46.228;24.812;2023-06-22T02:28:19;97840.09;;;17.08;88.30
51261;BME280;61705;46.228;24.812;2023-06-22T02:30:49;97837.44;;;17.20;87.56
51261;BME280;61705;46.228;24.812;2023-06-22T02:33:16;97826.31;;;17.26;87.21
51261;BME280;61705;46.228;24.812;2023-06-22T02:35:43;97822.56;;;17.29;86.93
51261;BME280;61705;46.228;24.812;2023-06-22T02:38:14;97826.31;;;17.26;86.57
51261;BME280;61705;46.228;24.812;2023-06-22T02:40:43;97837.84;;;17.27;87.02
51261;BME280;61705;46.228;24.812;2023-06-22T02:43:09;97847.91;;;17.23;87.11
51261;BME280;61705;46.228;24.812;2023-06-22T02:45:37;97833.16;;;17.31;86.88
51261;BME280;61705;46.228;24.812;2023-06-22T02:48:08;97835.59;;;17.21;87.19
51261;BME280;61705;46.228;24.812;2023-06-22T02:50:36;97838.16;;;17.22;87.10
51261;BME280;61705;46.228;24.812;2023-06-22T02:53:07;97836.47;;;17.21;86.78
51261;BME280;61705;46.228;24.812;2023-06-22T02:55:37;97839.13;;;17.21;87.13
51261;BME280;61705;46.228;24.812;2023-06-22T02:58:08;97837.63;;;17.17;87.13
51261;BME280;61705;46.228;24.812;2023-06-22T03:00:37;97827.69;;;17.32;86.52
51261;BME280;61705;46.228;24.812;2023-06-22T03:03:05;97838.66;;;17.53;85.46
51261;BME280;61705;46.228;24.812;2023-06-22T03:05:32;97832.47;;;17.52;85.36
51261;BME280;61705;46.228;24.812;2023-06-22T03:08:02;97826.63;;;17.35;86.07
51261;BME280;61705;46.228;24.812;2023-06-22T03:10:28;97827.06;;;17.28;86.30
51261;BME280;61705;46.228;24.812;2023-06-22T03:12:55;97828.75;;;17.42;85.57
51261;BME280;61705;46.228;24.812;2023-06-22T03:15:24;97834.00;;;17.31;85.95
51261;BME280;61705;46.228;24.812;2023-06-22T03:17:52;97831.53;;;17.28;86.17
51261;BME280;61705;46.228;24.812;2023-06-22T03:20:21;97829.38;;;17.33;86.21
51261;BME280;61705;46.228;24.812;2023-06-22T03:22:48;97827.91;;;17.29;86.06
51261;BME280;61705;46.228;24.812;2023-06-22T03:25:22;97829.09;;;17.38;85.88
51261;BME280;61705;46.228;24.812;2023-06-22T03:27:49;97831.75;;;17.38;86.23
51261;BME280;61705;46.228;24.812;2023-06-22T03:30:16;97825.97;;;17.44;86.03
51261;BME280;61705;46.228;24.812;2023-06-22T03:32:48;97825.00;;;17.45;85.37
51261;BME280;61705;46.228;24.812;2023-06-22T03:35:15;97821.78;;;17.52;85.32
51261;BME280;61705;46.228;24.812;2023-06-22T03:37:42;97829.69;;;17.80;84.45
51261;BME280;61705;46.228;24.812;2023-06-22T03:40:09;97833.31;;;17.66;84.45
51261;BME280;61705;46.228;24.812;2023-06-22T03:42:38;97833.94;;;17.69;84.56
51261;BME280;61705;46.228;24.812;2023-06-22T03:45:08;97826.25;;;17.65;84.54
51261;BME280;61705;46.228;24.812;2023-06-22T03:47:37;97823.03;;;17.72;83.92
51261;BME280;61705;46.228;24.812;2023-06-22T03:50:05;97823.13;;;17.84;83.69
51261;BME280;61705;46.228;24.812;2023-06-22T03:52:32;97804.19;;;17.87;83.64
51261;BME280;61705;46.228;24.812;2023-06-22T03:54:59;97804.38;;;17.96;83.63
51261;BME280;61705;46.228;24.812;2023-06-22T03:57:25;97809.56;;;18.11;82.79
51261;BME280;61705;46.228;24.812;2023-06-22T03:59:57;97813.09;;;18.11;82.92
51261;BME280;61705;46.228;24.812;2023-06-22T04:02:24;97807.97;;;18.08;83.36
51261;BME280;61705;46.228;24.812;2023-06-22T04:04:51;97808.38;;;18.15;83.57
51261;BME280;61705;46.228;24.812;2023-06-22T04:07:18;97808.34;;;18.39;83.25
51261;BME280;61705;46.228;24.812;2023-06-22T04:09:45;97814.41;;;18.54;82.16
51261;BME280;61705;46.228;24.812;2023-06-22T04:12:14;97826.38;;;18.37;82.91
51261;BME280;61705;46.228;24.812;2023-06-22T04:14:41;97829.38;;;18.32;83.10
51261;BME280;61705;46.228;24.812;2023-06-22T04:17:10;97838.28;;;18.33;83.11
51261;BME280;61705;46.228;24.812;2023-06-22T04:19:41;97833.63;;;18.35;83.34
51261;BME280;61705;46.228;24.812;2023-06-22T04:22:08;97840.47;;;18.39;83.36
51261;BME280;61705;46.228;24.812;2023-06-22T04:24:34;97841.34;;;18.39;83.07
51261;BME280;61705;46.228;24.812;2023-06-22T04:27:01;97847.47;;;18.53;82.52
51261;BME280;61705;46.228;24.812;2023-06-22T04:29:29;97846.16;;;18.58;82.71
51261;BME280;61705;46.228;24.812;2023-06-22T04:31:57;97843.47;;;18.58;82.40
51261;BME280;61705;46.228;24.812;2023-06-22T04:34:29;97837.75;;;18.63;82.77
51261;BME280;61705;46.228;24.812;2023-06-22T04:36:59;97846.16;;;18.82;81.94
51261;BME280;61705;46.228;24.812;2023-06-22T04:39:26;97846.16;;;18.93;81.35
51261;BME280;61705;46.228;24.812;2023-06-22T04:41:55;97844.13;;;18.97;80.97
51261;BME280;61705;46.228;24.812;2023-06-22T04:44:28;97841.56;;;18.96;81.10
51261;BME280;61705;46.228;24.812;2023-06-22T04:46:57;97849.97;;;19.02;80.44
51261;BME280;61705;46.228;24.812;2023-06-22T04:49:29;97847.09;;;19.16;79.86
51261;BME280;61705;46.228;24.812;2023-06-22T04:52:01;97851.75;;;19.26;79.70
51261;BME280;61705;46.228;24.812;2023-06-22T04:54:28;97860.16;;;19.32;79.27
51261;BME280;61705;46.228;24.812;2023-06-22T04:56:55;97872.44;;;19.24;79.88
51261;BME280;61705;46.228;24.812;2023-06-22T04:59:28;97874.63;;;19.18;80.27
51261;BME280;61705;46.228;24.812;2023-06-22T05:02:01;97891.53;;;19.19;80.27
51261;BME280;61705;46.228;24.812;2023-06-22T05:04:30;97886.34;;;19.40;79.87
51261;BME280;61705;46.228;24.812;2023-06-22T05:07:00;97881.25;;;19.59;79.16
51261;BME280;61705;46.228;24.812;2023-06-22T05:09:27;97879.69;;;19.68;79.00
51261;BME280;61705;46.228;24.812;2023-06-22T05:11:54;97876.03;;;19.80;78.52
51261;BME280;61705;46.228;24.812;2023-06-22T05:14:23;97877.88;;;19.91;77.91
51261;BME280;61705;46.228;24.812;2023-06-22T05:16:51;97872.38;;;20.04;77.22
51261;BME280;61705;46.228;24.812;2023-06-22T05:19:24;97881.59;;;20.22;76.51
51261;BME280;61705;46.228;24.812;2023-06-22T05:21:51;97871.81;;;20.32;76.19
51261;BME280;61705;46.228;24.812;2023-06-22T05:24:18;97870.97;;;20.32;76.00
51261;BME280;61705;46.228;24.812;2023-06-22T05:26:45;97860.34;;;20.30;75.83
51261;BME280;61705;46.228;24.812;2023-06-22T05:29:14;97868.53;;;20.29;75.97
51261;BME280;61705;46.228;24.812;2023-06-22T05:31:41;97864.25;;;20.38;76.22
51261;BME280;61705;46.228;24.812;2023-06-22T05:34:08;97863.13;;;20.40;76.17
51261;BME280;61705;46.228;24.812;2023-06-22T05:36:35;97858.56;;;20.63;75.57
51261;BME280;61705;46.228;24.812;2023-06-22T05:39:14;97853.47;;;20.81;74.69
51261;BME280;61705;46.228;24.812;2023-06-22T05:41:41;97854.97;;;21.06;74.18
51261;BME280;61705;46.228;24.812;2023-06-22T05:44:12;97857.63;;;21.27;73.66
51261;BME280;61705;46.228;24.812;2023-06-22T05:46:43;97846.09;;;21.36;73.13
51261;BME280;61705;46.228;24.812;2023-06-22T05:49:15;97851.00;;;21.52;72.89
51261;BME280;61705;46.228;24.812;2023-06-22T05:51:44;97859.47;;;21.47;72.72
51261;BME280;61705;46.228;24.812;2023-06-22T05:54:14;97867.56;;;21.57;72.60
51261;BME280;61705;46.228;24.812;2023-06-22T05:56:42;97864.88;;;21.78;72.09
51261;BME280;61705;46.228;24.812;2023-06-22T05:59:11;97854.44;;;21.64;72.29
51261;BME280;61705;46.228;24.812;2023-06-22T06:01:41;97853.69;;;21.52;72.92
51261;BME280;61705;46.228;24.812;2023-06-22T06:04:08;97859.81;;;21.54;72.80
51261;BME280;61705;46.228;24.812;2023-06-22T06:06:35;97858.72;;;21.66;72.41
51261;BME280;61705;46.228;24.812;2023-06-22T06:09:06;97860.34;;;21.79;71.90
51261;BME280;61705;46.228;24.812;2023-06-22T06:11:34;97863.59;;;21.82;71.89
51261;BME280;61705;46.228;24.812;2023-06-22T06:14:08;97849.84;;;21.75;72.21
51261;BME280;61705;46.228;24.812;2023-06-22T06:16:35;97848.47;;;21.91;71.82
51261;BME280;61705;46.228;24.812;2023-06-22T06:19:02;97844.47;;;22.16;71.23
51261;BME280;61705;46.228;24.812;2023-06-22T06:21:28;97839.25;;;22.24;71.27
51261;BME280;61705;46.228;24.812;2023-06-22T06:23:59;97835.56;;;22.35;71.05
51261;BME280;61705;46.228;24.812;2023-06-22T06:26:28;97841.94;;;22.24;71.48
51261;BME280;61705;46.228;24.812;2023-06-22T06:29:01;97839.03;;;22.06;72.27
51261;BME280;61705;46.228;24.812;2023-06-22T06:31:28;97845.22;;;21.97;72.04
51261;BME280;61705;46.228;24.812;2023-06-22T06:33:55;97845.84;;;22.10;71.90
51261;BME280;61705;46.228;24.812;2023-06-22T06:36:22;97844.47;;;22.26;71.77
51261;BME280;61705;46.228;24.812;2023-06-22T06:38:49;97848.19;;;22.34;71.23
51261;BME280;61705;46.228;24.812;2023-06-22T06:41:16;97852.53;;;22.26;71.34
51261;BME280;61705;46.228;24.812;2023-06-22T06:43:43;97858.31;;;22.11;71.90
51261;BME280;61705;46.228;24.812;2023-06-22T06:46:10;97860.34;;;22.19;71.32
51261;BME280;61705;46.228;24.812;2023-06-22T06:48:37;97846.63;;;22.32;70.83
51261;BME280;61705;46.228;24.812;2023-06-22T06:51:03;97854.25;;;22.17;71.83
51261;BME280;61705;46.228;24.812;2023-06-22T06:53:30;97850.59;;;22.28;71.25
51261;BME280;61705;46.228;24.812;2023-06-22T06:55:57;97846.63;;;22.41;70.94
51261;BME280;61705;46.228;24.812;2023-06-22T06:58:24;97839.56;;;22.40;70.97
51261;BME280;61705;46.228;24.812;2023-06-22T07:00:51;97835.44;;;22.46;70.92
51261;BME280;61705;46.228;24.812;2023-06-22T07:03:18;97842.97;;;22.62;70.20
51261;BME280;61705;46.228;24.812;2023-06-22T07:05:51;97839.28;;;22.92;69.40
51261;BME280;61705;46.228;24.812;2023-06-22T07:08:18;97838.97;;;23.24;68.21
51261;BME280;61705;46.228;24.812;2023-06-22T07:10:45;97834.09;;;23.37;67.45
51261;BME280;61705;46.228;24.812;2023-06-22T07:13:11;97828.63;;;23.67;66.54
51261;BME280;61705;46.228;24.812;2023-06-22T07:15:38;97826.00;;;23.84;65.78
51261;BME280;61705;46.228;24.812;2023-06-22T07:18:05;97828.63;;;24.04;65.25
51261;BME280;61705;46.228;24.812;2023-06-22T07:20:31;97818.47;;;24.33;64.61
51261;BME280;61705;46.228;24.812;2023-06-22T07:22:59;97822.84;;;24.62;63.79
51261;BME280;61705;46.228;24.812;2023-06-22T07:25:25;97820.41;;;24.95;63.14
51261;BME280;61705;46.228;24.812;2023-06-22T07:28:06;97820.66;;;25.01;63.08
51261;BME280;61705;46.228;24.812;2023-06-22T07:30:33;97815.41;;;27.61;63.59
51261;BME280;61705;46.228;24.812;2023-06-22T07:33:02;97821.50;;;25.02;63.68
51261;BME280;61705;46.228;24.812;2023-06-22T07:35:31;97830.53;;;24.39;65.68
51261;BME280;61705;46.228;24.812;2023-06-22T07:37:57;97838.09;;;24.35;65.92
51261;BME280;61705;46.228;24.812;2023-06-22T07:40:24;97844.84;;;24.49;65.58
51261;BME280;61705;46.228;24.812;2023-06-22T07:42:51;97841.13;;;24.50;64.81
51261;BME280;61705;46.228;24.812;2023-06-22T07:45:19;97846.09;;;24.55;64.05
51261;BME280;61705;46.228;24.812;2023-06-22T07:47:46;97838.53;;;24.58;63.55
51261;BME280;61705;46.228;24.812;2023-06-22T07:50:13;97841.06;;;24.60;63.35
51261;BME280;61705;46.228;24.812;2023-06-22T07:52:40;97837.22;;;24.63;62.99
51261;BME280;61705;46.228;24.812;2023-06-22T07:55:07;97843.84;;;24.68;62.82
51261;BME280;61705;46.228;24.812;2023-06-22T07:57:36;97837.88;;;25.00;61.75
51261;BME280;61705;46.228;24.812;2023-06-22T08:00:05;97834.47;;;24.98;61.44
51261;BME280;61705;46.228;24.812;2023-06-22T08:02:45;97829.38;;;24.95;61.66
51261;BME280;61705;46.228;24.812;2023-06-22T08:05:13;97830.25;;;24.96;61.72
51261;BME280;61705;46.228;24.812;2023-06-22T08:07:48;97834.66;;;24.97;61.74
51261;BME280;61705;46.228;24.812;2023-06-22T08:10:17;97828.22;;;25.16;61.61
51261;BME280;61705;46.228;24.812;2023-06-22T08:12:43;97827.41;;;25.41;60.63
51261;BME280;61705;46.228;24.812;2023-06-22T08:15:10;97838.44;;;25.48;60.96
51261;BME280;61705;46.228;24.812;2023-06-22T08:17:38;97833.22;;;25.55;60.94
51261;BME280;61705;46.228;24.812;2023-06-22T08:20:08;97831.69;;;25.52;61.68
51261;BME280;61705;46.228;24.812;2023-06-22T08:22:42;97827.19;;;25.61;61.42
51261;BME280;61705;46.228;24.812;2023-06-22T08:25:09;97826.69;;;25.65;61.50
51261;BME280;61705;46.228;24.812;2023-06-22T08:27:37;97831.88;;;25.59;61.29
51261;BME280;61705;46.228;24.812;2023-06-22T08:30:04;97824.09;;;25.56;60.99
51261;BME280;61705;46.228;24.812;2023-06-22T08:32:31;97828.50;;;25.83;59.91
51261;BME280;61705;46.228;24.812;2023-06-22T08:34:59;97822.00;;;25.75;59.44
51261;BME280;61705;46.228;24.812;2023-06-22T08:37:27;97824.22;;;26.14;58.29
51261;BME280;61705;46.228;24.812;2023-06-22T08:40:03;97817.13;;;26.21;58.16
51261;BME280;61705;46.228;24.812;2023-06-22T08:42:39;97820.28;;;26.51;57.58
51261;BME280;61705;46.228;24.812;2023-06-22T08:45:07;97812.66;;;26.63;56.43
51261;BME280;61705;46.228;24.812;2023-06-22T08:47:34;97812.00;;;26.85;55.28
51261;BME280;61705;46.228;24.812;2023-06-22T08:50:01;97815.56;;;26.86;55.00
51261;BME280;61705;46.228;24.812;2023-06-22T08:52:30;97806.41;;;27.20;54.58
51261;BME280;61705;46.228;24.812;2023-06-22T08:54:56;97809.50;;;27.72;53.16
51261;BME280;61705;46.228;24.812;2023-06-22T08:57:25;97799.44;;;27.97;53.00
51261;BME280;61705;46.228;24.812;2023-06-22T08:59:52;97801.63;;;28.41;51.82
51261;BME280;61705;46.228;24.812;2023-06-22T09:02:19;97788.84;;;28.88;50.90
51261;BME280;61705;46.228;24.812;2023-06-22T09:04:46;97787.47;;;28.92;50.41
51261;BME280;61705;46.228;24.812;2023-06-22T09:07:13;97786.88;;;28.58;50.45
51261;BME280;61705;46.228;24.812;2023-06-22T09:09:40;97779.69;;;28.43;50.96
51261;BME280;61705;46.228;24.812;2023-06-22T09:12:07;97792.19;;;28.52;50.71
51261;BME280;61705;46.228;24.812;2023-06-22T09:14:34;97789.72;;;28.42;51.13
51261;BME280;61705;46.228;24.812;2023-06-22T09:17:02;97787.16;;;28.41;50.79
51261;BME280;61705;46.228;24.812;2023-06-22T09:19:29;97780.28;;;28.53;49.89
51261;BME280;61705;46.228;24.812;2023-06-22T09:21:56;97779.72;;;28.57;50.18
51261;BME280;61705;46.228;24.812;2023-06-22T09:24:23;97775.50;;;28.78;50.34
51261;BME280;61705;46.228;24.812;2023-06-22T09:26:49;97780.41;;;28.83;49.54
51261;BME280;61705;46.228;24.812;2023-06-22T09:29:18;97780.03;;;29.09;48.82
51261;BME280;61705;46.228;24.812;2023-06-22T09:31:45;97779.41;;;28.98;49.37
51261;BME280;61705;46.228;24.812;2023-06-22T09:34:12;97783.50;;;28.79;49.46
51261;BME280;61705;46.228;24.812;2023-06-22T09:36:38;97784.25;;;29.11;49.21
51261;BME280;61705;46.228;24.812;2023-06-22T09:39:07;97780.13;;;29.15;49.14
51261;BME280;61705;46.228;24.812;2023-06-22T09:41:34;97784.72;;;29.00;49.51
51261;BME280;61705;46.228;24.812;2023-06-22T09:44:00;97782.38;;;28.89;49.38
51261;BME280;61705;46.228;24.812;2023-06-22T09:46:27;97781.41;;;28.81;49.25
51261;BME280;61705;46.228;24.812;2023-06-22T09:48:55;97777.09;;;28.72;49.62
51261;BME280;61705;46.228;24.812;2023-06-22T09:51:22;97768.94;;;28.72;49.28
51261;BME280;61705;46.228;24.812;2023-06-22T09:53:51;97763.19;;;28.67;49.62
51261;BME280;61705;46.228;24.812;2023-06-22T09:56:17;97763.00;;;28.69;49.61
51261;BME280;61705;46.228;24.812;2023-06-22T09:58:46;97758.44;;;29.07;48.98
51261;BME280;61705;46.228;24.812;2023-06-22T10:01:13;97754.63;;;29.31;48.19
51261;BME280;61705;46.228;24.812;2023-06-22T10:03:43;97759.81;;;29.85;47.11
51261;BME280;61705;46.228;24.812;2023-06-22T10:06:16;97758.50;;;29.66;47.29
51261;BME280;61705;46.228;24.812;2023-06-22T10:08:42;97753.25;;;29.80;47.42
51261;BME280;61705;46.228;24.812;2023-06-22T10:11:09;97755.69;;;29.74;47.90
51261;BME280;61705;46.228;24.812;2023-06-22T10:13:36;97754.53;;;29.39;48.62
51261;BME280;61705;46.228;24.812;2023-06-22T10:16:03;97758.72;;;29.12;49.42
51261;BME280;61705;46.228;24.812;2023-06-22T10:18:31;97757.00;;;28.96;49.34
51261;BME280;61705;46.228;24.812;2023-06-22T10:20:58;97747.31;;;28.94;50.04
51261;BME280;61705;46.228;24.812;2023-06-22T10:23:25;97747.72;;;29.05;49.46
51261;BME280;61705;46.228;24.812;2023-06-22T10:25:52;97737.72;;;28.83;50.51
51261;BME280;61705;46.228;24.812;2023-06-22T10:28:18;97734.34;;;28.81;50.66
51261;BME280;61705;46.228;24.812;2023-06-22T10:30:45;97744.63;;;28.71;50.29
51261;BME280;61705;46.228;24.812;2023-06-22T10:33:12;97741.44;;;28.82;51.07
51261;BME280;61705;46.228;24.812;2023-06-22T10:35:39;97741.19;;;28.92;50.29
51261;BME280;61705;46.228;24.812;2023-06-22T10:38:06;97738.13;;;28.95;49.97
51261;BME280;61705;46.228;24.812;2023-06-22T10:40:33;97728.41;;;28.77;50.02
51261;BME280;61705;46.228;24.812;2023-06-22T10:42:59;97724.59;;;28.87;50.14
51261;BME280;61705;46.228;24.812;2023-06-22T10:45:26;97729.56;;;28.83;50.21
51261;BME280;61705;46.228;24.812;2023-06-22T10:47:55;97727.47;;;28.85;50.60
51261;BME280;61705;46.228;24.812;2023-06-22T10:50:22;97729.94;;;28.95;49.93
51261;BME280;61705;46.228;24.812;2023-06-22T10:52:50;97722.91;;;29.23;49.56
51261;BME280;61705;46.228;24.812;2023-06-22T10:55:17;97722.13;;;29.89;47.62
51261;BME280;61705;46.228;24.812;2023-06-22T10:57:44;97720.38;;;29.66;47.54
51261;BME280;61705;46.228;24.812;2023-06-22T11:00:14;97716.97;;;29.35;49.07
51261;BME280;61705;46.228;24.812;2023-06-22T11:02:43;97723.09;;;29.66;48.00
51261;BME280;61705;46.228;24.812;2023-06-22T11:05:10;97734.38;;;29.34;49.30
51261;BME280;61705;46.228;24.812;2023-06-22T11:07:37;97730.78;;;29.48;49.13
51261;BME280;61705;46.228;24.812;2023-06-22T11:10:05;97723.84;;;29.60;48.56
51261;BME280;61705;46.228;24.812;2023-06-22T11:12:32;97724.09;;;29.95;47.75
51261;BME280;61705;46.228;24.812;2023-06-22T11:14:58;97719.50;;;29.95;46.38
51261;BME280;61705;46.228;24.812;2023-06-22T11:17:25;97714.88;;;30.32;44.76
51261;BME280;61705;46.228;24.812;2023-06-22T11:19:52;97718.69;;;30.16;44.04
51261;BME280;61705;46.228;24.812;2023-06-22T11:22:19;97712.22;;;30.39;44.32
51261;BME280;61705;46.228;24.812;2023-06-22T11:24:45;97711.28;;;30.75;43.89
51261;BME280;61705;46.228;24.812;2023-06-22T11:27:12;97713.16;;;30.96;44.10
51261;BME280;61705;46.228;24.812;2023-06-22T11:29:39;97717.44;;;31.33;44.03
51261;BME280;61705;46.228;24.812;2023-06-22T11:32:07;97710.97;;;31.12;43.49
51261;BME280;61705;46.228;24.812;2023-06-22T11:34:36;97712.63;;;30.79;44.16
51261;BME280;61705;46.228;24.812;2023-06-22T11:37:02;97712.09;;;30.47;44.85
51261;BME280;61705;46.228;24.812;2023-06-22T11:39:29;97700.00;;;30.56;44.03
51261;BME280;61705;46.228;24.812;2023-06-22T11:42:09;97709.34;;;30.26;42.14
51261;BME280;61705;46.228;24.812;2023-06-22T11:44:35;97707.75;;;29.95;42.13
51261;BME280;61705;46.228;24.812;2023-06-22T11:47:02;97701.84;;;29.77;41.79
51261;BME280;61705;46.228;24.812;2023-06-22T11:49:31;97697.91;;;29.79;41.95
51261;BME280;61705;46.228;24.812;2023-06-22T11:51:57;97700.22;;;29.97;42.20
51261;BME280;61705;46.228;24.812;2023-06-22T11:54:24;97697.84;;;29.94;41.27
51261;BME280;61705;46.228;24.812;2023-06-22T11:56:51;97705.22;;;30.15;41.62
51261;BME280;61705;46.228;24.812;2023-06-22T11:59:18;97697.72;;;30.60;42.05
51261;BME280;61705;46.228;24.812;2023-06-22T12:01:45;97707.47;;;31.19;42.33
51261;BME280;61705;46.228;24.812;2023-06-22T12:04:12;97699.31;;;31.25;43.21
51261;BME280;61705;46.228;24.812;2023-06-22T12:06:39;97700.44;;;31.79;42.63
51261;BME280;61705;46.228;24.812;2023-06-22T12:09:08;97704.22;;;31.36;42.79
51261;BME280;61705;46.228;24.812;2023-06-22T12:11:35;97705.09;;;30.81;44.05
51261;BME280;61705;46.228;24.812;2023-06-22T12:14:02;97694.34;;;30.79;44.21
51261;BME280;61705;46.228;24.812;2023-06-22T12:16:28;97692.66;;;30.78;42.81
51261;BME280;61705;46.228;24.812;2023-06-22T12:18:55;97683.56;;;31.69;41.84
51261;BME280;61705;46.228;24.812;2023-06-22T12:21:22;97682.06;;;32.07;41.07
51261;BME280;61705;46.228;24.812;2023-06-22T12:23:49;97673.69;;;32.29;40.82
51261;BME280;61705;46.228;24.812;2023-06-22T12:26:16;97678.38;;;32.42;40.99
51261;BME280;61705;46.228;24.812;2023-06-22T12:28:43;97668.13;;;31.89;42.01
51261;BME280;61705;46.228;24.812;2023-06-22T12:31:09;97682.25;;;31.99;41.79
51261;BME280;61705;46.228;24.812;2023-06-22T12:33:36;97676.50;;;32.42;40.16
51261;BME280;61705;46.228;24.812;2023-06-22T12:36:03;97675.19;;;32.31;41.05
51261;BME280;61705;46.228;24.812;2023-06-22T12:38:31;97678.34;;;31.74;42.76
51261;BME280;61705;46.228;24.812;2023-06-22T12:40:58;97676.53;;;31.39;43.67
51261;BME280;61705;46.228;24.812;2023-06-22T12:43:25;97671.22;;;31.03;44.32
51261;BME280;61705;46.228;24.812;2023-06-22T12:45:51;97665.47;;;30.42;46.18
51261;BME280;61705;46.228;24.812;2023-06-22T12:48:24;97661.06;;;30.69;45.66
51261;BME280;61705;46.228;24.812;2023-06-22T12:50:51;97654.88;;;30.54;46.38
51261;BME280;61705;46.228;24.812;2023-06-22T12:53:20;97677.28;;;29.91;47.42
51261;BME280;61705;46.228;24.812;2023-06-22T12:55:49;97671.59;;;29.57;49.43
51261;BME280;61705;46.228;24.812;2023-06-22T12:58:16;97682.31;;;29.73;50.34
51261;BME280;61705;46.228;24.812;2023-06-22T13:00:43;97685.22;;;29.57;51.21